Dades meteomassalio
Diari Summary for Octubre 10, 2017 Units:  Metric    English   Both
« Previous Day
Next Day »
Diari Semanal Mensual Anual Personalitzat
  Maxima: Minima: Mijana:
Temperatura: -17.8 °C -15.6 °C -10.3 °C
Rosada: -17.8 °C -19.4 °C -16.6 °C
Humitat: Humidity % 24 % 50 %
Velocitat del vent: 0 km/h 0 km/h 2.6 km/h
Racha vent: 0 km/h - -
Vent:- - West
Pressio: 0 hPa 34577.8 hPa -
Pluja: 0 mm    
Historical Graphs
 
 
Tabular Data for Octubre 10, 2017
Time Temperature Dew Point Pressure Wind Wind Speed Wind Gust Humidity Rainfall Rate (Hourly) solar Conditions
-17.8 °C -17.8 °C 0 hPa Calm     Humidity % 0 mm SolarRadiationWatts/m^2 W/m2 Conditions
00:03 -13.2 °C -17.3 °C 34625.2 hPa Calm     59 % 0 mm 0.0 W/m2 CLR
00:09 -13.2 °C -17.2 °C 34635.4 hPa Calm     60 % 0 mm 0.0 W/m2 CLR
00:14 -12.8 °C -16.8 °C 34625.2 hPa Calm     61 % 0 mm 0.0 W/m2 CLR
00:19 -12.8 °C -16.8 °C 34635.4 hPa Calm     61 % 0 mm 0.0 W/m2 CLR
00:24 -12.8 °C -16.8 °C 34625.2 hPa Calm     61 % 0 mm 0.0 W/m2 CLR
00:29 -12.8 °C -16.8 °C 34635.4 hPa Calm     61 % 0 mm 0.0 W/m2 CLR
00:39 -12.8 °C -16.8 °C 34625.2 hPa Calm     61 % 0 mm 0.0 W/m2 CLR
00:44 -13.2 °C -17 °C 34625.2 hPa Calm     62 % 0 mm 0.0 W/m2 CLR
00:49 -12.8 °C -16.7 °C 34635.4 hPa Calm     62 % 0 mm 0.0 W/m2 CLR
00:54 -12.8 °C -16.7 °C 34635.4 hPa Calm     62 % 0 mm 0.0 W/m2 CLR
00:59 -12.8 °C -16.6 °C 34635.4 hPa Calm     63 % 0 mm 0.0 W/m2 CLR
01:04 -12.8 °C -16.6 °C 34625.2 hPa Calm     63 % 0 mm 0.0 W/m2 CLR
01:09 -12.8 °C -16.6 °C 34625.2 hPa Calm     63 % 0 mm 0.0 W/m2 CLR
01:10 -13.2 °C -16.8 °C 34635.4 hPa Calm     63 % 0 mm 0.0 W/m2 CLR
01:16 -13.2 °C -16.8 °C 34625.2 hPa Calm     63 % 0 mm 0.0 W/m2 CLR
01:26 -13.4 °C -17 °C 34625.2 hPa Calm     64 % 0 mm 0.0 W/m2 CLR
01:31 -13.4 °C -17 °C 34625.2 hPa Calm     64 % 0 mm 0.0 W/m2 CLR
01:36 -13.4 °C -17 °C 34625.2 hPa Calm     64 % 0 mm 0.0 W/m2 CLR
01:41 -13.4 °C -16.9 °C 34625.2 hPa Calm     65 % 0 mm 0.0 W/m2 CLR
01:46 -13.4 °C -16.9 °C 34625.2 hPa Calm     65 % 0 mm 0.0 W/m2 CLR
01:51 -13.4 °C -16.9 °C 34625.2 hPa Calm     65 % 0 mm 0.0 W/m2 CLR
01:56 -13.4 °C -16.9 °C 34625.2 hPa Calm     65 % 0 mm 0.0 W/m2 CLR
02:01 -13.8 °C -17.2 °C 34625.2 hPa Calm     65 % 0 mm 0.0 W/m2 CLR
02:06 -13.4 °C -16.8 °C 34625.2 hPa Calm     66 % 0 mm 0.0 W/m2 CLR
02:11 -13.4 °C -16.8 °C 34625.2 hPa Calm     66 % 0 mm 0.0 W/m2 CLR
02:16 -13.2 °C -16.5 °C 34625.2 hPa Calm     66 % 0 mm 0.0 W/m2 CLR
02:21 -13.4 °C -16.6 °C 34625.2 hPa Calm     67 % 0 mm 0.0 W/m2 CLR
02:26 -13.4 °C -16.6 °C 34625.2 hPa Calm     67 % 0 mm 0.0 W/m2 CLR
02:31 -13.4 °C -16.6 °C 34625.2 hPa Calm     67 % 0 mm 0.0 W/m2 CLR
02:36 -13.4 °C -16.6 °C 34625.2 hPa Calm     67 % 0 mm 0.0 W/m2 CLR
02:41 -13.4 °C -16.6 °C 34625.2 hPa Calm     68 % 0 mm 0.0 W/m2 CLR
02:46 -13.4 °C -16.6 °C 34625.2 hPa Calm     68 % 0 mm 0.0 W/m2 CLR
02:51 -13.4 °C -16.6 °C 34625.2 hPa Calm     68 % 0 mm 0.0 W/m2 CLR
02:56 -13.4 °C -16.6 °C 34625.2 hPa Calm     68 % 0 mm 0.0 W/m2 CLR
03:01 -13.4 °C -16.4 °C 34625.2 hPa Calm     69 % 0 mm 0.0 W/m2 CLR
03:06 -13.4 °C -16.6 °C 34625.2 hPa Calm     68 % 0 mm 0.0 W/m2 CLR
03:11 -13.4 °C -16.6 °C 34625.2 hPa Calm     68 % 0 mm 0.0 W/m2 CLR
03:16 -13.4 °C -16.6 °C 34625.2 hPa Calm     68 % 0 mm 0.0 W/m2 CLR
03:21 -13.8 °C -16.8 °C 34625.2 hPa Calm     68 % 0 mm 0.0 W/m2 CLR
03:26 -13.8 °C -16.7 °C 34625.2 hPa Calm     69 % 0 mm 0.0 W/m2 CLR
03:31 -13.8 °C -16.7 °C 34625.2 hPa Calm     69 % 0 mm 0.0 W/m2 CLR
03:36 -13.8 °C -16.6 °C 34625.2 hPa Calm     70 % 0 mm 0.0 W/m2 CLR
03:41 -13.8 °C -16.6 °C 34625.2 hPa Calm     70 % 0 mm 0.0 W/m2 CLR
03:46 -13.8 °C -16.6 °C 34625.2 hPa Calm     70 % 0 mm 0.0 W/m2 CLR
03:51 -14.1 °C -16.9 °C 34625.2 hPa Calm     70 % 0 mm 0.0 W/m2 CLR
04:01 -14.4 °C -17.2 °C 34625.2 hPa Calm     70 % 0 mm 0.0 W/m2 CLR
04:06 -14.1 °C -16.9 °C 34625.2 hPa Calm     70 % 0 mm 0.0 W/m2 CLR
04:11 -13.8 °C -16.5 °C 34625.2 hPa Calm     71 % 0 mm 0.0 W/m2 CLR
04:16 -13.8 °C -16.5 °C 34625.2 hPa Calm     71 % 0 mm 0.0 W/m2 CLR
04:21 -14.1 °C -16.8 °C 34625.2 hPa Calm     71 % 0 mm 0.0 W/m2 CLR
04:26 -14.1 °C -16.7 °C 34625.2 hPa Calm     72 % 0 mm 0.0 W/m2 CLR
04:31 -14.1 °C -16.8 °C 34625.2 hPa Calm     71 % 0 mm 0.0 W/m2 CLR
04:41 -14.1 °C -16.8 °C 34625.2 hPa Calm     71 % 0 mm 0.0 W/m2 CLR
04:46 -14.1 °C -16.8 °C 34625.2 hPa Calm     71 % 0 mm 0.0 W/m2 CLR
04:51 -14.1 °C -16.7 °C 34625.2 hPa Calm     72 % 0 mm 0.0 W/m2 CLR
04:56 -14.1 °C -16.7 °C 34625.2 hPa Calm     72 % 0 mm 0.0 W/m2 CLR
05:01 -14.4 °C -17.2 °C 34625.2 hPa Calm     70 % 0 mm 0.0 W/m2 CLR
05:06 -14.4 °C -17.2 °C 34625.2 hPa Calm     70 % 0 mm 0.0 W/m2 CLR
05:11 -14.4 °C -17.1 °C 34625.2 hPa Calm     71 % 0 mm 0.0 W/m2 CLR
05:16 -14.4 °C -17 °C 34625.2 hPa Calm     72 % 0 mm 0.0 W/m2 CLR
05:20 -14.7 °C -17.3 °C 34625.2 hPa Calm     72 % 0 mm 0.0 W/m2 CLR
05:21 -14.7 °C -17.3 °C 34625.2 hPa Calm     72 % 0 mm 0.0 W/m2 CLR
05:26 -14.7 °C -17.3 °C 34611.7 hPa Calm     72 % 0 mm 0.0 W/m2 CLR
05:31 -14.7 °C -17.3 °C 34625.2 hPa Calm     72 % 0 mm 0.0 W/m2 CLR
05:36 -14.4 °C -17 °C 34625.2 hPa Calm     72 % 0 mm 0.0 W/m2 CLR
05:41 -14.4 °C -17 °C 34625.2 hPa Calm     72 % 0 mm 0.0 W/m2 CLR
05:46 -14.4 °C -17 °C 34625.2 hPa Calm     72 % 0 mm 0.0 W/m2 CLR
05:51 -14.7 °C -17.3 °C 34625.2 hPa Calm     72 % 0 mm 0.0 W/m2 CLR
05:56 -14.7 °C -17.2 °C 34625.2 hPa Calm     73 % 0 mm 0.0 W/m2 CLR
06:01 -14.7 °C -17.2 °C 34625.2 hPa Calm     73 % 0 mm 0.0 W/m2 CLR
06:06 -14.7 °C -17.4 °C 34625.2 hPa Calm     71 % 0 mm 0.0 W/m2 CLR
06:11 -14.7 °C -17.3 °C 34625.2 hPa Calm     72 % 0 mm 0.0 W/m2 CLR
06:16 -15 °C -17.4 °C 34625.2 hPa Calm     73 % 0 mm 0.0 W/m2 CLR
06:21 -15 °C -17.4 °C 34625.2 hPa Calm     74 % 0 mm 0.0 W/m2 CLR
06:26 -15.3 °C -17.7 °C 34625.2 hPa Calm     74 % 0 mm 0.0 W/m2 CLR
06:36 -15 °C -17.3 °C 34625.2 hPa Calm     75 % 0 mm 0.0 W/m2 CLR
06:41 -15 °C -17.4 °C 34625.2 hPa Calm     74 % 0 mm 0.0 W/m2 CLR
06:46 -15.3 °C -17.6 °C 34625.2 hPa Calm     75 % 0 mm 0.0 W/m2 CLR
06:51 -15.3 °C -17.4 °C 34625.2 hPa Calm     76 % 0 mm 0.0 W/m2 CLR
06:56 -15.3 °C -17.4 °C 34625.2 hPa Calm     76 % 0 mm 0.0 W/m2 CLR
07:01 -15 °C -17.2 °C 34625.2 hPa Calm     76 % 0 mm 0.0 W/m2 CLR
07:06 -15 °C -17.2 °C 34625.2 hPa Calm     76 % 0 mm 0.0 W/m2 CLR
07:11 -15.3 °C -17.6 °C 34625.2 hPa Calm     75 % 0 mm 0.0 W/m2 CLR
07:16 -15.3 °C -17.6 °C 34635.4 hPa Calm     75 % 0 mm 0.0 W/m2 CLR
07:21 -15.6 °C -17.9 °C 34635.4 hPa Calm     75 % 0 mm 0.0 W/m2 CLR
07:26 -15.6 °C -17.7 °C 34635.4 hPa Calm     76 % 0 mm 0.0 W/m2 CLR
07:31 -15.6 °C -17.7 °C 34635.4 hPa Calm     76 % 0 mm 0.0 W/m2 CLR
07:36 -15.6 °C -17.9 °C 34635.4 hPa Calm     75 % 0 mm 0.0 W/m2 CLR
07:41 -15.6 °C -17.7 °C 34635.4 hPa Calm     76 % 0 mm 0.0 W/m2 CLR
07:46 -15.3 °C -17.4 °C 34635.4 hPa Calm     76 % 0 mm 0.0 W/m2 CLR
07:51 -15.3 °C -17.4 °C 34635.4 hPa Calm     76 % 0 mm 0.0 W/m2 CLR
07:56 -15.3 °C -17.4 °C 34635.4 hPa Calm     76 % 0 mm 0.0 W/m2 CLR
08:01 -15.6 °C -17.7 °C 34645.6 hPa Calm     76 % 0 mm 0.0 W/m2 OVC
08:06 -15.6 °C -17.7 °C 34645.6 hPa Calm     76 % 0 mm 5.0 W/m2 OVC
08:11 -15.6 °C -17.7 °C 34645.6 hPa Calm     77 % 0 mm 7.0 W/m2 BKN
08:21 -15.3 °C -17.3 °C 34645.6 hPa Calm     77 % 0 mm 12.0 W/m2 BKN
08:26 -15 °C -16.9 °C 34659.1 hPa Calm     78 % 0 mm 14.0 W/m2 BKN
08:31 -14.7 °C -16.8 °C 34659.1 hPa Calm     77 % 0 mm 16.0 W/m2 BKN
08:36 -14.7 °C -16.8 °C 34659.1 hPa Calm     76 % 0 mm 23.0 W/m2 BKN
08:41 -14.7 °C -16.8 °C 34659.1 hPa Calm     77 % 0 mm 32.0 W/m2 BKN
08:46 -15 °C -17.3 °C 34659.1 hPa Calm     75 % 0 mm 46.0 W/m2 BKN
08:51 -15 °C -17.4 °C 34659.1 hPa Calm     74 % 0 mm 42.0 W/m2 BKN
08:56 -15 °C -17.4 °C 34659.1 hPa Calm     73 % 0 mm 62.0 W/m2 SCT
09:01 -15 °C -17.6 °C 34659.1 hPa Calm     72 % 0 mm 60.0 W/m2 SCT
09:07 -15 °C -17.7 °C 34669.3 hPa Calm     71 % 0 mm 107.0 W/m2 FEW
09:12 -14.7 °C -17.4 °C 34669.3 hPa Calm     71 % 0 mm 116.0 W/m2 CLR
09:17 -14.7 °C -17.6 °C 34669.3 hPa Calm     69 % 0 mm 144.0 W/m2 CLR
09:22 -14.7 °C -17.8 °C 34669.3 hPa Calm     67 % 0 mm 123.0 W/m2 CLR
09:27 -14.4 °C -17.7 °C 34669.3 hPa Calm     66 % 0 mm 181.0 W/m2 CLR
09:32 -14.4 °C -17.8 °C 34682.8 hPa Calm     65 % 0 mm 199.0 W/m2 CLR
09:37 -14.1 °C -17.4 °C 34682.8 hPa Calm     65 % 0 mm 220.0 W/m2 CLR
09:42 -13.8 °C -17.3 °C 34682.8 hPa Calm     64 % 0 mm 236.0 W/m2 CLR
09:47 -13.4 °C -17.3 °C 34682.8 hPa Calm     62 % 0 mm 251.0 W/m2 CLR
09:57 -12.8 °C -17.1 °C 34682.8 hPa Calm     59 % 0 mm 285.0 W/m2 CLR
10:07 -12.6 °C -17.3 °C 34682.8 hPa Calm     55 % 0 mm 315.0 W/m2 CLR
10:12 -12.2 °C -17 °C 34682.8 hPa Calm     55 % 0 mm 327.0 W/m2 CLR
10:17 -11.9 °C -16.9 °C 34682.8 hPa Calm     54 % 0 mm 338.0 W/m2 CLR
10:22 -11.6 °C -16.9 °C 34682.8 hPa Calm     52 % 0 mm 357.0 W/m2 CLR
10:27 -11.3 °C -16.8 °C 34682.8 hPa Calm     51 % 0 mm 367.0 W/m2 CLR
10:32 -11 °C -16.6 °C 34682.8 hPa Calm     50 % 0 mm 385.0 W/m2 CLR
10:37 -10.7 °C -16.2 °C 34682.8 hPa Calm     51 % 0 mm 397.0 W/m2 CLR
10:42 -10.4 °C -16.1 °C 34682.8 hPa Calm     50 % 0 mm 411.0 W/m2 CLR
10:47 -10.1 °C -15.8 °C 34682.8 hPa Calm     50 % 0 mm 425.0 W/m2 CLR
10:52 -9.8 °C -15.4 °C 34682.8 hPa Calm     50 % 0 mm 438.0 W/m2 CLR
10:57 -9.4 °C -15.5 °C 34682.8 hPa Calm     48 % 0 mm 450.0 W/m2 CLR
11:02 -9.1 °C -15.4 °C 34682.8 hPa Calm     47 % 0 mm 462.0 W/m2 CLR
11:07 -8.8 °C -15.3 °C 34682.8 hPa Calm     46 % 0 mm 476.0 W/m2 CLR
11:12 -8.5 °C -15 °C 34682.8 hPa Calm     46 % 0 mm 489.0 W/m2 CLR
11:17 -8.2 °C -15.1 °C 34669.3 hPa Calm     44 % 0 mm 499.0 W/m2 CLR
11:22 -7.9 °C -14.8 °C 34682.8 hPa Calm     44 % 0 mm 510.0 W/m2 CLR
11:27 -7.9 °C -14.8 °C 34682.8 hPa Calm     44 % 0 mm 524.0 W/m2 CLR
11:32 -7.6 °C -14.6 °C 34669.3 hPa Calm     44 % 0 mm 533.0 W/m2 CLR
11:37 -7.6 °C -14.7 °C 34669.3 hPa Calm     43 % 0 mm 541.0 W/m2 CLR
11:42 -7.3 °C -14.6 °C 34669.3 hPa Calm     42 % 0 mm 554.0 W/m2 CLR
11:47 -7 °C -14.3 °C 34669.3 hPa Calm     42 % 0 mm 564.0 W/m2 CLR
11:52 -7 °C -14.7 °C 34669.3 hPa Calm     40 % 0 mm 573.0 W/m2 CLR
11:57 -6.7 °C -14.4 °C 34669.3 hPa Calm     40 % 0 mm 582.0 W/m2 CLR
12:02 -6.7 °C -14.4 °C 34669.3 hPa Calm   0.3 km/h 40 % 0 mm 589.0 W/m2 CLR
12:07 -6.3 °C -14.6 °C 34669.3 hPa SW 9 km/h 9 km/h 38 % 0 mm 598.0 W/m2 CLR
12:12 -6.1 °C -14.6 °C 34669.3 hPa WSW 11.9 km/h 11.9 km/h 37 % 0 mm 605.0 W/m2 CLR
12:17 -6.1 °C -14.8 °C 34669.3 hPa WNW 9 km/h 9 km/h 36 % 0 mm 612.0 W/m2 CLR
12:22 -6.1 °C -14.8 °C 34669.3 hPa SW 20.9 km/h 20.9 km/h 36 % 0 mm 619.0 W/m2 CLR
12:27 -5.7 °C -14.3 °C 34659.1 hPa Calm     37 % 0 mm 624.0 W/m2 CLR
12:32 -5.4 °C -14.2 °C 34669.3 hPa WSW 23.8 km/h 23.8 km/h 36 % 0 mm 633.0 W/m2 CLR
12:37 -5.4 °C -14.4 °C 34659.1 hPa SW 17.9 km/h 17.9 km/h 35 % 0 mm 638.0 W/m2 CLR
12:42 -5.1 °C -14.2 °C 34669.3 hPa WSW 12.9 km/h 12.9 km/h 35 % 0 mm 645.0 W/m2 CLR
12:47 -5.1 °C -14.2 °C 34659.1 hPa Calm   1 km/h 35 % 0 mm 649.0 W/m2 CLR
12:52 -5.1 °C -14.2 °C 34659.1 hPa Calm     35 % 0 mm 654.0 W/m2 CLR
12:57 -5.1 °C -14.2 °C 34659.1 hPa South 15 km/h 15 km/h 35 % 0 mm 659.0 W/m2 CLR
13:02 -5.1 °C -14.4 °C 34659.1 hPa SE 11.9 km/h 11.9 km/h 34 % 0 mm 664.0 W/m2 CLR
13:07 -4.8 °C -14.1 °C 34659.1 hPa SW 20.9 km/h 20.9 km/h 34 % 0 mm 668.0 W/m2 CLR
13:12 -4.5 °C -13.6 °C 34659.1 hPa Calm   0.8 km/h 35 % 0 mm 668.0 W/m2 CLR
13:17 -4.5 °C -13.8 °C 34659.1 hPa Calm     34 % 0 mm 675.0 W/m2 CLR
13:22 -4.5 °C -14.1 °C 34659.1 hPa WSW 20.9 km/h 20.9 km/h 33 % 0 mm 675.0 W/m2 CLR
13:27 -4.8 °C -14.3 °C 34645.6 hPa NW 17.9 km/h 17.9 km/h 33 % 0 mm 677.0 W/m2 CLR
13:32 -4.8 °C -14.6 °C 34645.6 hPa West 17.9 km/h 17.9 km/h 32 % 0 mm 677.0 W/m2 CLR
13:37 -4.8 °C -14.9 °C 34645.6 hPa WNW 20.9 km/h 20.9 km/h 31 % 0 mm 679.0 W/m2 CLR
13:42 -4.8 °C -14.9 °C 34645.6 hPa Calm     31 % 0 mm 680.0 W/m2 CLR
13:47 -4.8 °C -14.9 °C 34645.6 hPa West 9 km/h 9 km/h 31 % 0 mm 684.0 W/m2 CLR
13:52 -4.5 °C -14.6 °C 34645.6 hPa West 15.6 km/h 15.6 km/h 31 % 0 mm 682.0 W/m2 CLR
13:57 -4.5 °C -14.6 °C 34645.6 hPa West 11.9 km/h 11.9 km/h 31 % 0 mm 680.0 W/m2 CLR
14:02 -4.5 °C -14.8 °C 34635.4 hPa WNW 20.9 km/h 20.9 km/h 30 % 0 mm 680.0 W/m2 CLR
14:07 -4.8 °C -15.4 °C 34635.4 hPa West 17.9 km/h 17.9 km/h 29 % 0 mm 677.0 W/m2 CLR
14:12 -4.5 °C -15.4 °C 34635.4 hPa West 11.9 km/h 11.9 km/h 28 % 0 mm 677.0 W/m2 CLR
14:22 -4.5 °C -15.1 °C 34625.2 hPa West 11.9 km/h 11.9 km/h 29 % 0 mm 671.0 W/m2 CLR
14:27 -4.5 °C -14.8 °C 34625.2 hPa WNW 23.8 km/h 23.8 km/h 30 % 0 mm 670.0 W/m2 CLR
14:32 -4.5 °C -14.8 °C 34625.2 hPa WNW 17.9 km/h 17.9 km/h 30 % 0 mm 666.0 W/m2 CLR
14:37 -4.5 °C -14.8 °C 34625.2 hPa West 15.6 km/h 15.6 km/h 30 % 0 mm 661.0 W/m2 CLR
14:42 -4.2 °C -14.9 °C 34611.7 hPa NNE 7.7 km/h 7.7 km/h 29 % 0 mm 656.0 W/m2 CLR
14:47 -4.2 °C -14.9 °C 34611.7 hPa Calm     29 % 0 mm 654.0 W/m2 CLR
14:53 -4.2 °C -14.6 °C 34611.7 hPa West 9 km/h 9 km/h 30 % 0 mm 649.0 W/m2 CLR
14:58 -4.2 °C -14.9 °C 34611.7 hPa Calm     29 % 0 mm 643.0 W/m2 CLR
15:03 -3.9 °C -14.6 °C 34611.7 hPa Calm   0.3 km/h 29 % 0 mm 636.0 W/m2 CLR
15:08 -4.2 °C -14.9 °C 34611.7 hPa NNW 3.1 km/h   29 % 0 mm 633.0 W/m2 CLR
15:13 -4.2 °C -14.9 °C 34601.5 hPa NNE 9 km/h 9 km/h 29 % 0 mm 626.0 W/m2 CLR
15:18 -4.2 °C -14.9 °C 34601.5 hPa North 17.9 km/h 17.9 km/h 29 % 0 mm 619.0 W/m2 CLR
15:23 -4.2 °C -14.9 °C 34601.5 hPa NNW 9 km/h 9 km/h 29 % 0 mm 610.0 W/m2 CLR
15:28 -4.2 °C -14.9 °C 34601.5 hPa North 11.9 km/h 11.9 km/h 29 % 0 mm 603.0 W/m2 CLR
15:33 -3.9 °C -14.6 °C 34601.5 hPa Calm     29 % 0 mm 594.0 W/m2 CLR
15:38 -4.2 °C -14.9 °C 34601.5 hPa North 11.9 km/h 11.9 km/h 29 % 0 mm 587.0 W/m2 CLR
15:43 -3.9 °C -14.6 °C 34601.5 hPa Calm     29 % 0 mm 577.0 W/m2 CLR
15:48 -3.9 °C -14.6 °C 34591.4 hPa Calm     29 % 0 mm 568.0 W/m2 CLR
15:53 -3.9 °C -14.6 °C 34591.4 hPa Calm     29 % 0 mm 561.0 W/m2 CLR
16:03 -3.9 °C -15.2 °C 34591.4 hPa Calm     27 % 0 mm 536.0 W/m2 CLR
16:08 -3.9 °C -14.9 °C 34591.4 hPa North 10.3 km/h 10.3 km/h 28 % 0 mm 527.0 W/m2 CLR
16:13 -3.9 °C -15.2 °C 34591.4 hPa North 15 km/h 15 km/h 27 % 0 mm 515.0 W/m2 CLR
16:18 -3.9 °C -15.2 °C 34591.4 hPa North 15 km/h 15 km/h 27 % 0 mm 504.0 W/m2 CLR
16:23 -3.6 °C -14.6 °C 34591.4 hPa NNW 15 km/h 15 km/h 28 % 0 mm 492.0 W/m2 CLR
16:28 -3.6 °C -14.6 °C 34591.4 hPa NNW 2.6 km/h   28 % 0 mm 478.0 W/m2 CLR
16:29 -3.9 °C -14.9 °C 34591.4 hPa NW 12.9 km/h 12.9 km/h 28 % 0 mm 476.0 W/m2 CLR
16:34 -3.6 °C -14.9 °C 34591.4 hPa North 9 km/h 9 km/h 27 % 0 mm 466.0 W/m2 CLR
16:39 -3.9 °C -14.9 °C 34591.4 hPa Calm     28 % 0 mm 452.0 W/m2 CLR
16:44 -3.6 °C -14.9 °C 34591.4 hPa NNE 15 km/h 15 km/h 27 % 0 mm 439.0 W/m2 CLR
16:49 -3.9 °C -15.2 °C 34577.8 hPa North 11.9 km/h 11.9 km/h 27 % 0 mm 425.0 W/m2 CLR
16:54 -3.6 °C -14.9 °C 34577.8 hPa North 6 km/h 6 km/h 27 % 0 mm 413.0 W/m2 CLR
16:59 -3.6 °C -14.9 °C 34577.8 hPa North 11.9 km/h 11.9 km/h 27 % 0 mm 397.0 W/m2 CLR
17:04 -3.6 °C -15.2 °C 34577.8 hPa NW 6 km/h   26 % 0 mm 387.0 W/m2 CLR
17:09 -3.6 °C -15.2 °C 34577.8 hPa Calm   0.3 km/h 26 % 0 mm 369.0 W/m2 CLR
17:14 -3.6 °C -15.2 °C 34577.8 hPa NNW 9 km/h 9 km/h 26 % 0 mm 359.0 W/m2 CLR
17:19 -3.6 °C -15.5 °C 34577.8 hPa Calm     25 % 0 mm 345.0 W/m2 CLR
17:29 -3.9 °C -15.8 °C 34577.8 hPa NNW 3.1 km/h 3.1 km/h 25 % 0 mm 313.0 W/m2 CLR
17:34 -3.9 °C -15.8 °C 34577.8 hPa NNW 15 km/h 15 km/h 25 % 0 mm 302.0 W/m2 CLR
17:44 -3.9 °C -15.8 °C 34577.8 hPa NW 9 km/h 9 km/h 25 % 0 mm 265.0 W/m2 CLR
17:45 -3.9 °C -15.8 °C 34577.8 hPa NNW 15.6 km/h 15.6 km/h 25 % 0 mm 262.0 W/m2 CLR
17:50 -4.2 °C -16.1 °C 34577.8 hPa NW 9 km/h 9 km/h 25 % 0 mm 246.0 W/m2 CLR
17:55 -4.2 °C -16.3 °C 34577.8 hPa North 9 km/h 9 km/h 24 % 0 mm 229.0 W/m2 CLR
17:56 -4.2 °C -16.3 °C 34577.8 hPa North 9 km/h 9 km/h 24 % 0 mm 229.0 W/m2 CLR
18:01 -4.2 °C -16.1 °C 34577.8 hPa NNW 11.9 km/h 11.9 km/h 25 % 0 mm 207.0 W/m2 CLR
18:06 -4.5 °C -16.3 °C 34577.8 hPa NW 12.9 km/h 12.9 km/h 25 % 0 mm 190.0 W/m2 CLR
18:11 -4.5 °C -16.3 °C 34577.8 hPa Calm   0.5 km/h 25 % 0 mm 172.0 W/m2 CLR
18:16 -4.8 °C -16.6 °C 34577.8 hPa Calm     25 % 0 mm 149.0 W/m2 CLR
18:21 -5.4 °C -17.1 °C 34577.8 hPa NW 7.7 km/h 7.7 km/h 25 % 0 mm 134.0 W/m2 CLR
18:26 -5.7 °C -17.7 °C 34577.8 hPa NW 11.9 km/h 11.9 km/h 24 % 0 mm 118.0 W/m2 CLR
18:31 -5.7 °C -17.7 °C 34577.8 hPa Calm     24 % 0 mm 100.0 W/m2 CLR
18:36 -6.1 °C -17.9 °C 34577.8 hPa Calm     24 % 0 mm 76.0 W/m2 FEW
18:41 -6.3 °C -17.9 °C 34577.8 hPa Calm     25 % 0 mm 65.0 W/m2 FEW
18:46 -7 °C -18.4 °C 34577.8 hPa Calm     25 % 0 mm 51.0 W/m2 SCT
18:51 -7.3 °C -18.4 °C 34591.4 hPa Calm     26 % 0 mm 40.0 W/m2 BKN
18:56 -7.3 °C -18.4 °C 34591.4 hPa Calm     26 % 0 mm 28.0 W/m2 BKN
19:01 -7.6 °C -18.7 °C 34591.4 hPa Calm     26 % 0 mm 19.0 W/m2 BKN
19:06 -7.9 °C -18.9 °C 34591.4 hPa Calm     26 % 0 mm 14.0 W/m2 BKN
19:11 -8.2 °C -18.8 °C 34591.4 hPa Calm     27 % 0 mm 12.0 W/m2 BKN
19:16 -8.5 °C -19.1 °C 34591.4 hPa Calm     27 % 0 mm 11.0 W/m2 BKN
19:21 -8.8 °C -19.4 °C 34591.4 hPa Calm     27 % 0 mm 7.0 W/m2 BKN
19:26 -8.8 °C -19.1 °C 34591.4 hPa Calm     28 % 0 mm 5.0 W/m2 OVC
19:31 -9.1 °C -19.4 °C 34591.4 hPa Calm     28 % 0 mm 0.0 W/m2 OVC
19:36 -9.1 °C -19.1 °C 34591.4 hPa Calm     29 % 0 mm 0.0 W/m2 OVC
19:41 -9.1 °C -18.9 °C 34591.4 hPa Calm     30 % 0 mm 0.0 W/m2 CLR
19:46 -9.4 °C -18.9 °C 34601.5 hPa Calm     31 % 0 mm 0.0 W/m2 CLR
19:51 -9.1 °C -18.4 °C 34601.5 hPa Calm     32 % 0 mm 0.0 W/m2 CLR
19:56 -9.4 °C -18.4 °C 34601.5 hPa Calm     33 % 0 mm 0.0 W/m2 CLR
20:01 -9.4 °C -17.9 °C 34601.5 hPa Calm     35 % 0 mm 0.0 W/m2 CLR
20:06 -9.8 °C -18 °C 34601.5 hPa Calm     36 % 0 mm 0.0 W/m2 CLR
20:11 -10.1 °C -18.3 °C 34611.7 hPa Calm     36 % 0 mm 0.0 W/m2 CLR
20:16 -10.1 °C -17.9 °C 34611.7 hPa Calm     38 % 0 mm 0.0 W/m2 CLR
20:21 -10.1 °C -17.9 °C 34611.7 hPa Calm     38 % 0 mm 0.0 W/m2 CLR
20:31 -10.1 °C -17.5 °C 34611.7 hPa Calm     40 % 0 mm 0.0 W/m2 CLR
20:36 -10.1 °C -17.5 °C 34611.7 hPa Calm     40 % 0 mm 0.0 W/m2 CLR
20:41 -10.1 °C -17.3 °C 34625.2 hPa Calm     41 % 0 mm 0.0 W/m2 CLR
20:46 -10.4 °C -17.6 °C 34625.2 hPa Calm     41 % 0 mm 0.0 W/m2 CLR
20:51 -10.4 °C -17.4 °C 34625.2 hPa Calm     42 % 0 mm 0.0 W/m2 CLR
20:56 -10.7 °C -17.7 °C 34625.2 hPa Calm     42 % 0 mm 0.0 W/m2 CLR
21:01 -10.7 °C -17.5 °C 34625.2 hPa Calm     43 % 0 mm 0.0 W/m2 CLR
21:06 -11 °C -17.8 °C 34625.2 hPa Calm     43 % 0 mm 0.0 W/m2 CLR
21:11 -11 °C -17.8 °C 34635.4 hPa Calm     43 % 0 mm 0.0 W/m2 CLR
21:17 -11.3 °C -17.9 °C 34635.4 hPa Calm     44 % 0 mm 0.0 W/m2 CLR
21:22 -11 °C -17.4 °C 34635.4 hPa Calm     45 % 0 mm 0.0 W/m2 CLR
21:27 -11 °C -17.4 °C 34635.4 hPa Calm     45 % 0 mm 0.0 W/m2 CLR
21:32 -11.3 °C -17.7 °C 34635.4 hPa Calm     45 % 0 mm 0.0 W/m2 CLR
21:37 -11.3 °C -17.6 °C 34635.4 hPa Calm     46 % 0 mm 0.0 W/m2 CLR
21:42 -11.3 °C -17.2 °C 34635.4 hPa Calm     48 % 0 mm 0.0 W/m2 CLR
21:47 -11.3 °C -17.6 °C 34635.4 hPa Calm     46 % 0 mm 0.0 W/m2 CLR
21:52 -11.3 °C -17.6 °C 34635.4 hPa Calm     46 % 0 mm 0.0 W/m2 CLR
21:57 -11.3 °C -17.6 °C 34635.4 hPa Calm     46 % 0 mm 0.0 W/m2 CLR
22:02 -11.6 °C -17.8 °C 34645.6 hPa Calm     46 % 0 mm 0.0 W/m2 CLR
22:07 -11.6 °C -17.8 °C 34645.6 hPa Calm     46 % 0 mm 0.0 W/m2 CLR
22:12 -11.9 °C -18.1 °C 34645.6 hPa Calm     46 % 0 mm 0.0 W/m2 CLR
22:17 -11.9 °C -17.9 °C 34645.6 hPa Calm     47 % 0 mm 0.0 W/m2 CLR
22:22 -11.9 °C -17.8 °C 34645.6 hPa Calm     48 % 0 mm 0.0 W/m2 CLR
22:27 -12.2 °C -17.9 °C 34645.6 hPa Calm     49 % 0 mm 0.0 W/m2 CLR
22:32 -12.2 °C -17.7 °C 34645.6 hPa Calm     50 % 0 mm 0.0 W/m2 CLR
22:37 -12.2 °C -17.6 °C 34645.6 hPa Calm     51 % 0 mm 0.0 W/m2 CLR
22:42 -12.2 °C -17.4 °C 34659.1 hPa Calm     52 % 0 mm 0.0 W/m2 CLR
22:47 -12.2 °C -17.4 °C 34659.1 hPa Calm     52 % 0 mm 0.0 W/m2 CLR
22:52 -12.6 °C -17.7 °C 34659.1 hPa Calm     52 % 0 mm 0.0 W/m2 CLR
22:57 -12.6 °C -17.6 °C 34659.1 hPa Calm     53 % 0 mm 0.0 W/m2 CLR
23:02 -12.8 °C -17.7 °C 34659.1 hPa Calm     54 % 0 mm 0.0 W/m2 CLR
23:07 -12.8 °C -17.7 °C 34659.1 hPa Calm     54 % 0 mm 0.0 W/m2 CLR
23:12 -12.8 °C -17.6 °C 34659.1 hPa Calm     55 % 0 mm 0.0 W/m2 CLR
23:17 -12.8 °C -17.6 °C 34659.1 hPa Calm     55 % 0 mm 0.0 W/m2 CLR
23:22 -12.8 °C -17.6 °C 34659.1 hPa Calm     55 % 0 mm 0.0 W/m2 CLR
23:27 -12.6 °C -17.3 °C 34659.1 hPa Calm     55 % 0 mm 0.0 W/m2 CLR
23:32 -12.6 °C -17.3 °C 34659.1 hPa Calm     55 % 0 mm 0.0 W/m2 CLR
23:37 -12.6 °C -17.3 °C 34659.1 hPa Calm     55 % 0 mm 0.0 W/m2 CLR
23:42 -12.6 °C -17.2 °C 34669.3 hPa Calm     56 % 0 mm 0.0 W/m2 CLR
23:47 -12.6 °C -17.2 °C 34669.3 hPa Calm     56 % 0 mm 0.0 W/m2 CLR
23:57 -12.8 °C -17.2 °C 34669.3 hPa Calm     58 % 0 mm 0.0 W/m2 CLR
Lo Temps de Massalio
Compliments of Weather Underground - 1.25 mb